Airfield :
LOGIN :

Register | Disclaimer

   EN    FR    IT 

 










Legend :    VFR   Marginal VFR   IFR   Intensive IFR   Very Intensive IFR
Visi :
Ceiling :
>= 8 km
>= 3000ft
5 to 8 km
1000 to 3000 ft
1500m to 5 km
500 to 1000 ft
800 to 1500m
200 to 500 ft
< 800m
< 200 ft
Symbols :   Thunderstorms  Fog  Heavy snow  Heavy precipitations  Wind > 20 kt
SIGMETs :     Misc.  Thunderstorms  Icing  Turbulence  Mountain Waves  Volcanic Ashes






- Airport Elevation : 68 ft
- IATA code : AGH


ESTA - Ängelholm-Helsingborg

CURRENT METAR :
  • 021720Z AUTO 28019KT 9999 FEW005/// SCT044/// OVC057/// 05/03 Q0993 REDZ

EXPIRED METARs :
  • 021650Z AUTO 27032G42KT 4700 DZ FEW003/// BKN005/// BKN015/// 06/04 Q0993
  • 021620Z 26028G40KT 9999 OVC035 08/03 Q0993
  • 021550Z 27025KT 9999 SCT042 BKN062 08/03 Q0994
  • 021520Z 27029KT 9000 FEW017 BKN030 OVC061 07/03 Q0995
  • 021450Z 27029KT 9999 FEW030 OVC043 08/03 Q0995

TAF TAF ESTA
Valid from the 02 at 15:00 until the 02 at 18:00 UTC


021400Z 0215/0218 27020KT 9999 BKN020
TEMPO 0215/0218 26025G45KT SHRA BKN012 BKN015TCU



MET'MAP, your aeronautical weather chart ! - Copyright ORBIFLY December 2007 - Disclaimer

ORBIFLY MET'MAP TEAM :

Programming & Development : Alexandra Zaïnal
Concept & original design : Baudouin d'Aumeries
Assistance for programming : Marc-Olivier Méhu
Technical & hardware support : Manuel Goepfert

Contact : metmap@orbifly.com




SOURCES & CREDITS :

   NOAA